createdAt,value
2023-02-11T00:00:46.366Z,28.47
2023-02-11T00:03:13.706Z,29.70
2023-02-11T00:05:40.978Z,28.70
2023-02-11T00:08:08.267Z,28.30
2023-02-11T00:10:35.548Z,29.90
2023-02-11T00:13:03.289Z,30.07
2023-02-11T00:15:30.551Z,30.17
2023-02-11T00:17:57.919Z,30.30
2023-02-11T00:20:25.390Z,29.83
2023-02-11T00:22:52.663Z,31.33
2023-02-11T00:25:19.971Z,31.90
2023-02-11T00:27:47.211Z,30.23
2023-02-11T00:30:14.499Z,29.70
2023-02-11T00:32:42.594Z,30.57
2023-02-11T00:35:09.929Z,29.27
2023-02-11T00:37:37.151Z,31.90
2023-02-11T00:40:06.792Z,30.20
2023-02-11T00:42:35.551Z,31.27
2023-02-11T00:45:03.340Z,30.97
2023-02-11T00:47:30.891Z,29.17
2023-02-11T00:49:58.212Z,31.23
2023-02-11T00:52:28.640Z,29.97
2023-02-11T00:54:56.088Z,31.90
2023-02-11T00:57:23.602Z,33.07
2023-02-11T00:59:50.857Z,29.73
2023-02-11T01:02:19.569Z,31.57
2023-02-11T01:04:47.128Z,30.23
2023-02-11T01:07:14.474Z,29.37
2023-02-11T01:09:41.753Z,30.73
2023-02-11T01:12:09.089Z,29.23
2023-02-11T01:14:36.650Z,29.97
2023-02-11T01:17:05.830Z,32.63
2023-02-11T01:19:33.194Z,30.13
2023-02-11T01:22:00.495Z,30.73
2023-02-11T01:24:28.314Z,30.50
2023-02-11T01:26:56.111Z,31.20
2023-02-11T01:29:25.069Z,31.07
2023-02-11T01:31:55.271Z,31.23
2023-02-11T01:34:22.551Z,30.80
2023-02-11T01:36:51.051Z,32.73
2023-02-11T01:39:18.460Z,30.40
2023-02-11T01:41:47.053Z,32.03
2023-02-11T01:44:33.351Z,31.87
2023-02-11T01:47:01.610Z,31.23
2023-02-11T01:49:32.603Z,31.40
2023-02-11T01:52:19.950Z,32.33
2023-02-11T01:55:10.982Z,31.33
2023-02-11T01:57:41.849Z,30.83
2023-02-11T02:00:47.405Z,31.10
2023-02-11T02:03:20.313Z,30.87
2023-02-11T02:06:00.223Z,30.57
2023-02-11T02:08:38.998Z,30.23
2023-02-11T02:11:06.811Z,31.77
2023-02-11T02:13:35.037Z,32.03
2023-02-11T02:16:12.578Z,31.90
2023-02-11T02:18:42.655Z,33.77
2023-02-11T02:21:42.178Z,33.07
2023-02-11T02:24:41.890Z,32.27
2023-02-11T02:27:29.041Z,31.40
2023-02-11T02:30:11.351Z,31.63
2023-02-11T02:33:21.715Z,31.43
2023-02-11T02:36:18.209Z,33.17
2023-02-11T02:39:08.757Z,29.63
2023-02-11T02:46:33.864Z,30.40
2023-02-11T02:49:01.731Z,31.83
2023-02-11T02:51:34.841Z,32.47
2023-02-11T02:54:36.840Z,31.30
2023-02-11T02:57:43.296Z,32.03
2023-02-11T03:00:30.501Z,32.33
2023-02-11T03:03:17.876Z,33.70
2023-02-11T03:06:00.154Z,33.50
2023-02-11T03:08:49.180Z,32.70
2023-02-11T03:11:19.478Z,30.70
2023-02-11T03:13:48.404Z,33.57
2023-02-11T03:16:27.811Z,33.80
2023-02-11T03:19:07.301Z,32.67
2023-02-11T03:21:37.979Z,32.00
2023-02-11T03:24:17.200Z,30.73
2023-02-11T03:26:49.741Z,31.83
2023-02-11T03:29:36.689Z,32.67
2023-02-11T03:32:12.208Z,31.73
2023-02-11T03:35:03.298Z,33.33
2023-02-11T03:37:33.100Z,31.53
2023-02-11T03:40:06.571Z,31.87
2023-02-11T03:43:04.341Z,32.27
2023-02-11T03:45:32.180Z,31.33
2023-02-11T03:48:25.053Z,31.57
2023-02-11T03:50:54.352Z,32.23
2023-02-11T03:53:22.859Z,31.97
2023-02-11T03:55:52.833Z,32.47
2023-02-11T03:58:21.108Z,32.80
2023-02-11T04:00:48.466Z,31.13
2023-02-11T04:03:16.061Z,30.20
2023-02-11T04:05:43.478Z,30.57
2023-02-11T04:08:10.840Z,30.57
2023-02-11T04:10:38.181Z,30.13
2023-02-11T04:13:07.608Z,29.70
2023-02-11T04:15:34.879Z,32.27
2023-02-11T04:18:03.558Z,30.13
2023-02-11T04:20:30.965Z,29.90
2023-02-11T04:22:58.276Z,30.33
2023-02-11T04:25:26.198Z,30.73
2023-02-11T04:27:53.460Z,29.63
2023-02-11T04:30:20.822Z,30.30
2023-02-11T04:32:48.050Z,29.83
2023-02-11T04:35:15.388Z,31.80
2023-02-11T04:37:42.685Z,29.90
2023-02-11T04:40:10.393Z,29.20
2023-02-11T04:42:37.799Z,30.77
2023-02-11T04:45:06.175Z,30.20
2023-02-11T04:47:34.214Z,30.30
2023-02-11T04:50:01.501Z,29.20
2023-02-11T04:52:28.964Z,30.13
2023-02-11T04:54:56.246Z,30.10
2023-02-11T04:57:23.831Z,28.80
2023-02-11T04:59:51.085Z,29.60
2023-02-11T05:02:18.361Z,29.07
2023-02-11T05:04:45.777Z,29.03
2023-02-11T05:07:13.134Z,28.87
2023-02-11T05:09:40.426Z,27.27
2023-02-11T05:12:07.754Z,29.40
2023-02-11T05:14:35.038Z,29.10
2023-02-11T05:17:02.295Z,30.10
2023-02-11T05:19:31.158Z,28.47
2023-02-11T05:22:03.147Z,27.23
2023-02-11T05:24:34.719Z,27.50
2023-02-11T05:27:01.996Z,26.83
2023-02-11T05:29:29.534Z,28.53
2023-02-11T05:31:58.855Z,28.30
2023-02-11T05:34:26.168Z,27.27
2023-02-11T05:36:53.423Z,28.73
2023-02-11T05:39:21.015Z,28.00
2023-02-11T05:41:48.327Z,26.23
2023-02-11T05:44:15.918Z,27.17
2023-02-11T05:46:43.505Z,28.73
2023-02-11T05:49:10.897Z,27.17
2023-02-11T05:51:38.226Z,27.40
2023-02-11T05:54:05.699Z,27.30
2023-02-11T05:56:32.996Z,27.57
2023-02-11T05:59:00.789Z,27.20
2023-02-11T06:01:28.392Z,27.83
2023-02-11T06:03:55.753Z,26.73
2023-02-11T06:06:23.130Z,28.10
2023-02-11T06:08:50.411Z,27.13
2023-02-11T06:11:18.165Z,26.97
2023-02-11T06:13:45.423Z,27.60
2023-02-11T06:16:12.703Z,26.33
2023-02-11T06:18:40.038Z,27.73
2023-02-11T06:21:09.436Z,27.50
2023-02-11T06:23:37.045Z,27.97
2023-02-11T06:26:06.865Z,27.87
2023-02-11T06:28:35.831Z,28.00
2023-02-11T06:31:07.207Z,27.50
2023-02-11T06:33:35.087Z,28.50
2023-02-11T06:36:02.560Z,30.00
2023-02-11T06:38:29.802Z,28.63
2023-02-11T06:40:57.341Z,27.13
2023-02-11T06:43:24.653Z,27.10
2023-02-11T06:45:56.063Z,26.77
2023-02-11T06:48:23.624Z,27.60
2023-02-11T06:50:50.953Z,27.63
2023-02-11T06:53:18.277Z,27.13
2023-02-11T06:55:45.610Z,27.00
2023-02-11T06:58:12.903Z,27.67
2023-02-11T07:00:40.282Z,27.07
2023-02-11T07:03:07.974Z,26.83
2023-02-11T07:05:37.037Z,26.23
2023-02-11T07:08:04.856Z,26.00
2023-02-11T07:10:33.485Z,27.30
2023-02-11T07:13:00.768Z,28.00
2023-02-11T07:15:29.105Z,27.97
2023-02-11T07:17:56.401Z,25.97
2023-02-11T07:20:24.429Z,25.03
2023-02-11T07:22:51.706Z,26.30
2023-02-11T07:25:19.353Z,26.97
2023-02-11T07:27:46.699Z,26.60
2023-02-11T07:30:14.566Z,28.10
2023-02-11T07:32:42.492Z,27.60
2023-02-11T07:35:20.213Z,26.50
2023-02-11T07:37:47.823Z,25.53
2023-02-11T07:40:15.184Z,26.50
2023-02-11T07:42:42.388Z,26.30
2023-02-11T07:45:09.790Z,27.50
2023-02-11T07:47:38.127Z,26.63
2023-02-11T07:50:06.781Z,26.17
2023-02-11T07:52:34.276Z,26.90
2023-02-11T07:55:04.448Z,24.93
2023-02-11T07:57:32.056Z,26.27
2023-02-11T07:59:59.428Z,27.10
2023-02-11T08:02:26.799Z,25.77
2023-02-11T08:04:54.284Z,27.77
2023-02-11T08:07:21.700Z,25.87
2023-02-11T08:09:48.964Z,25.57
2023-02-11T08:12:16.611Z,25.33
2023-02-11T08:14:43.851Z,27.20
2023-02-11T08:17:11.098Z,24.50
2023-02-11T08:19:39.553Z,25.27
2023-02-11T08:22:07.930Z,25.73
2023-02-11T08:24:39.940Z,24.37
2023-02-11T08:27:07.222Z,25.43
2023-02-11T08:29:34.432Z,25.73
2023-02-11T08:32:02.565Z,26.23
2023-02-11T08:34:30.209Z,25.07
2023-02-11T08:36:57.462Z,24.77
2023-02-11T08:39:24.743Z,25.73
2023-02-11T08:41:56.485Z,26.07
2023-02-11T08:44:24.981Z,25.80
2023-02-11T08:46:52.713Z,25.73
2023-02-11T08:49:20.627Z,26.03
2023-02-11T08:51:48.898Z,25.07
2023-02-11T08:54:16.676Z,26.47
2023-02-11T08:56:45.685Z,25.93
2023-02-11T08:59:14.985Z,25.27
2023-02-11T09:01:43.980Z,26.37
2023-02-11T09:04:11.468Z,25.13
2023-02-11T09:06:38.848Z,24.93
2023-02-11T09:09:06.889Z,24.63
2023-02-11T09:11:35.566Z,25.60
2023-02-11T09:14:04.230Z,25.60
2023-02-11T09:16:35.537Z,25.60
2023-02-11T09:19:04.480Z,25.10
2023-02-11T09:21:32.087Z,26.00
2023-02-11T09:23:59.542Z,26.13
2023-02-11T09:26:30.083Z,24.97
2023-02-11T09:28:57.876Z,28.07
2023-02-11T09:31:27.642Z,25.43
2023-02-11T09:33:58.075Z,26.33
2023-02-11T09:36:31.617Z,27.10
2023-02-11T09:39:00.712Z,25.50
2023-02-11T09:41:56.283Z,25.93
2023-02-11T09:44:27.305Z,26.13
2023-02-11T09:47:01.994Z,26.40
2023-02-11T09:49:46.871Z,27.07
2023-02-11T09:52:18.797Z,26.97
2023-02-11T09:55:04.049Z,27.23
2023-02-11T09:57:36.328Z,27.57
2023-02-11T10:00:20.202Z,26.47
2023-02-11T10:02:56.491Z,25.77
2023-02-11T10:05:39.878Z,26.27
2023-02-11T10:08:36.734Z,27.37
2023-02-11T10:11:31.618Z,25.33
2023-02-11T10:14:27.076Z,26.90
2023-02-11T10:17:13.540Z,25.33
2023-02-11T10:20:08.078Z,24.57
2023-02-11T10:22:45.123Z,26.40
2023-02-11T10:25:21.214Z,25.70
2023-02-11T10:27:49.625Z,25.80
2023-02-11T10:30:26.168Z,26.07
2023-02-11T10:33:17.834Z,26.77
2023-02-11T10:35:45.621Z,27.20
2023-02-11T10:38:12.885Z,27.13
2023-02-11T10:40:40.332Z,25.87
2023-02-11T10:43:14.760Z,27.23
2023-02-11T10:45:46.152Z,28.00
2023-02-11T10:48:40.818Z,27.63
2023-02-11T10:51:29.800Z,27.43
2023-02-11T10:54:13.881Z,25.73
2023-02-11T10:56:46.312Z,26.60
2023-02-11T10:59:21.717Z,28.00
2023-02-11T11:06:05.351Z,26.93
2023-02-11T11:08:48.841Z,25.57
2023-02-11T11:11:19.655Z,26.13
2023-02-11T11:13:53.074Z,26.50
2023-02-11T11:16:22.278Z,28.23
2023-02-11T11:18:52.549Z,27.10
2023-02-11T11:21:35.240Z,26.60
2023-02-11T11:24:03.911Z,25.07
2023-02-11T11:26:47.355Z,24.77
2023-02-11T11:29:35.011Z,25.07
2023-02-11T11:32:13.048Z,26.13
2023-02-11T11:34:42.527Z,25.37
2023-02-11T11:37:12.923Z,26.07
2023-02-11T11:39:40.660Z,26.67
2023-02-11T11:42:26.929Z,26.93
2023-02-11T11:45:00.445Z,25.93
2023-02-11T11:47:47.156Z,24.57
2023-02-11T11:50:43.735Z,24.47
2023-02-11T11:53:34.296Z,25.50
2023-02-11T11:56:04.173Z,25.43
2023-02-11T11:58:33.205Z,25.30
2023-02-11T12:01:03.770Z,24.17
2023-02-11T12:04:14.114Z,24.03
2023-02-11T12:07:02.150Z,25.33
2023-02-11T12:10:07.555Z,25.37
2023-02-11T12:13:02.874Z,24.57
2023-02-11T12:15:34.317Z,24.17
2023-02-11T12:18:26.482Z,24.73
2023-02-11T12:20:59.778Z,25.03
2023-02-11T12:23:45.938Z,23.97
2023-02-11T12:26:20.128Z,24.00
2023-02-11T12:29:14.886Z,25.87
2023-02-11T12:32:04.505Z,23.77
2023-02-11T12:34:36.857Z,23.63
2023-02-11T12:37:22.461Z,23.30
2023-02-11T12:40:01.324Z,22.90
2023-02-11T12:43:08.645Z,24.23
2023-02-11T12:46:02.431Z,23.93
2023-02-11T12:48:58.962Z,24.30
2023-02-11T12:51:50.892Z,23.37
2023-02-11T12:54:28.756Z,22.97
2023-02-11T12:57:22.585Z,21.87
2023-02-11T13:00:34.045Z,21.53
2023-02-11T13:03:16.813Z,21.80
2023-02-11T13:06:04.380Z,21.83
2023-02-11T13:08:35.740Z,22.80
2023-02-11T13:11:18.656Z,20.90
2023-02-11T13:13:45.971Z,21.13
2023-02-11T13:16:40.372Z,20.50
2023-02-11T13:19:15.835Z,21.83
2023-02-11T13:21:57.521Z,19.90
2023-02-11T13:24:39.944Z,21.40
2023-02-11T13:27:19.202Z,20.57
2023-02-11T13:30:27.958Z,20.17
2023-02-11T13:32:55.670Z,20.70
2023-02-11T13:35:43.499Z,20.13
2023-02-11T13:38:24.684Z,19.33
2023-02-11T13:41:16.614Z,19.43
2023-02-11T13:43:44.917Z,20.13
2023-02-11T13:46:15.029Z,20.60
2023-02-11T13:48:52.534Z,19.87
2023-02-11T13:51:37.184Z,19.03
2023-02-11T13:54:06.077Z,18.53
2023-02-11T13:56:39.179Z,18.77
2023-02-11T13:59:33.436Z,20.13
2023-02-11T14:02:24.350Z,19.20
2023-02-11T14:05:22.565Z,18.17
2023-02-11T14:08:30.902Z,18.83
2023-02-11T14:11:14.648Z,18.67
2023-02-11T14:13:48.138Z,17.93
2023-02-11T14:16:31.535Z,18.03
2023-02-11T14:19:03.026Z,18.37
2023-02-11T14:21:37.451Z,17.63
2023-02-11T14:24:04.959Z,17.70
2023-02-11T14:26:48.479Z,18.33
2023-02-11T14:29:42.057Z,17.83
2023-02-11T14:32:34.465Z,16.43
2023-02-11T14:35:31.940Z,18.10
2023-02-11T14:38:11.103Z,16.93
2023-02-11T14:41:01.661Z,16.77
2023-02-11T14:43:36.120Z,15.83
2023-02-11T14:46:03.995Z,14.87
2023-02-11T14:48:37.929Z,15.17
2023-02-11T14:51:10.481Z,14.97
2023-02-11T14:53:43.705Z,14.57
2023-02-11T14:56:26.261Z,15.43
2023-02-11T14:58:55.226Z,15.57
2023-02-11T15:01:35.065Z,14.27
2023-02-11T15:04:05.504Z,14.63
2023-02-11T15:06:46.277Z,15.63
2023-02-11T15:09:18.520Z,14.10
2023-02-11T15:11:49.166Z,13.60
2023-02-11T15:14:28.875Z,13.90
2023-02-11T15:17:00.500Z,13.30
2023-02-11T15:19:41.133Z,13.60
2023-02-11T15:22:21.971Z,14.77
2023-02-11T15:25:06.469Z,14.93
2023-02-11T15:27:52.077Z,14.97
2023-02-11T15:30:22.437Z,15.60
2023-02-11T15:32:51.930Z,13.73
2023-02-11T15:35:19.511Z,15.83
2023-02-11T15:37:48.944Z,14.67
2023-02-11T15:40:23.765Z,14.17
2023-02-11T15:42:59.980Z,14.20
2023-02-11T15:45:33.196Z,14.23
2023-02-11T15:48:14.898Z,14.10
2023-02-11T15:50:49.567Z,13.50
2023-02-11T15:53:31.935Z,14.33
2023-02-11T15:56:21.891Z,13.60
2023-02-11T15:58:54.152Z,13.93
2023-02-11T16:02:40.561Z,13.60
2023-02-11T16:05:09.342Z,13.00
2023-02-11T16:07:51.906Z,13.13
2023-02-11T16:10:39.545Z,13.13
2023-02-11T16:13:07.255Z,12.57
2023-02-11T16:25:24.477Z,13.57
2023-02-11T16:28:16.656Z,13.53
2023-02-11T16:30:44.526Z,12.77
2023-02-11T16:47:28.395Z,13.23
2023-02-11T16:49:58.626Z,12.97
2023-02-11T16:52:26.249Z,13.13
2023-02-11T16:54:54.622Z,12.43
2023-02-11T16:57:29.535Z,13.77
2023-02-11T16:59:58.939Z,15.00
2023-02-11T17:02:30.273Z,15.57
2023-02-11T17:05:03.433Z,14.70
2023-02-11T17:07:30.995Z,17.50
2023-02-11T17:09:59.103Z,15.70
2023-02-11T17:12:26.519Z,15.40
2023-02-11T17:14:54.483Z,15.93
2023-02-11T17:17:23.637Z,16.30
2023-02-11T17:19:51.232Z,17.30
2023-02-11T17:22:18.988Z,17.47
2023-02-11T17:24:46.590Z,16.93
2023-02-11T17:27:14.061Z,17.00
2023-02-11T17:29:41.516Z,18.27
2023-02-11T17:32:08.890Z,16.87
2023-02-11T17:34:37.762Z,18.33
2023-02-11T17:37:09.918Z,18.77
2023-02-11T17:39:38.807Z,19.43
2023-02-11T17:42:06.796Z,19.40
2023-02-11T17:44:34.562Z,19.07
2023-02-11T17:47:02.056Z,19.23
2023-02-11T17:49:29.453Z,18.50
2023-02-11T17:51:56.781Z,19.20
2023-02-11T17:54:24.954Z,19.97
2023-02-11T17:56:55.112Z,19.23
2023-02-11T17:59:25.848Z,19.43
2023-02-11T18:01:53.269Z,18.53
2023-02-11T18:04:20.634Z,19.27
2023-02-11T18:06:47.932Z,19.97
2023-02-11T18:09:15.141Z,20.20
2023-02-11T18:11:42.491Z,19.27
2023-02-11T18:14:10.551Z,20.57
2023-02-11T18:16:42.886Z,19.93
2023-02-11T18:19:11.310Z,20.43
2023-02-11T18:44:47.694Z,19.37
2023-02-11T18:47:15.347Z,20.40
2023-02-11T18:49:42.868Z,18.90
2023-02-11T19:13:35.368Z,19.67
2023-02-11T19:28:20.280Z,21.00
2023-02-11T19:30:48.013Z,20.57
2023-02-11T19:33:15.395Z,21.03
2023-02-11T19:35:42.755Z,20.50
2023-02-11T19:38:13.543Z,21.10
2023-02-11T19:40:41.403Z,20.30
2023-02-11T19:43:09.016Z,20.27
2023-02-11T19:45:37.773Z,20.90
2023-02-11T19:48:05.287Z,19.83
2023-02-11T19:50:33.469Z,20.73
2023-02-11T19:53:02.318Z,21.23
2023-02-11T19:55:29.923Z,18.67
2023-02-11T19:57:57.207Z,19.10
2023-02-11T20:00:24.720Z,20.30
2023-02-11T20:02:52.432Z,19.93
2023-02-11T20:05:20.969Z,20.57
2023-02-11T20:07:52.967Z,20.23
2023-02-11T20:10:55.318Z,19.43
2023-02-11T20:13:24.001Z,20.63
2023-02-11T20:15:52.896Z,20.40
2023-02-11T20:18:21.432Z,21.07
2023-02-11T20:20:48.758Z,20.13
2023-02-11T20:23:16.091Z,20.50
2023-02-11T20:25:43.565Z,22.80
2023-02-11T20:28:25.774Z,21.57
2023-02-11T20:38:35.766Z,19.87
2023-02-11T20:48:44.652Z,20.43
2023-02-11T20:51:15.217Z,21.73
2023-02-11T20:53:48.737Z,20.93
2023-02-11T20:56:27.309Z,21.60
2023-02-11T20:58:57.731Z,21.87
2023-02-11T21:01:31.589Z,22.03
2023-02-11T21:04:07.497Z,23.03
2023-02-11T21:07:29.099Z,21.90
2023-02-11T21:09:56.590Z,22.57
2023-02-11T21:12:24.061Z,22.07
2023-02-11T21:14:51.630Z,23.07
2023-02-11T21:17:19.135Z,22.27
2023-02-11T21:19:46.482Z,23.50
2023-02-11T21:22:13.953Z,23.00
2023-02-11T21:24:44.114Z,25.03
2023-02-11T21:27:14.203Z,23.10
2023-02-11T21:29:53.436Z,24.17
2023-02-11T21:32:22.020Z,24.77
2023-02-11T21:34:49.506Z,25.73
2023-02-11T21:37:16.953Z,26.33
2023-02-11T21:39:44.242Z,25.80
2023-02-11T21:42:11.570Z,25.80
2023-02-11T21:44:38.929Z,25.37
2023-02-11T21:47:06.942Z,24.27
2023-02-11T21:49:34.291Z,23.83
2023-02-11T21:52:01.809Z,21.97
2023-02-11T21:54:31.953Z,21.87
2023-02-11T21:57:02.815Z,23.17
2023-02-11T21:59:33.024Z,22.67
2023-02-11T22:02:00.428Z,22.57
2023-02-11T22:04:27.716Z,22.70
2023-02-11T22:06:55.000Z,22.33
2023-02-11T22:09:22.311Z,23.43
2023-02-11T22:11:50.178Z,22.70
2023-02-11T22:14:17.796Z,24.63
2023-02-11T22:16:46.336Z,24.27
2023-02-11T22:19:14.447Z,22.03
2023-02-11T22:21:43.316Z,22.03
2023-02-11T22:24:10.598Z,23.03
2023-02-11T22:26:38.503Z,22.60
2023-02-11T22:29:05.938Z,22.93
2023-02-11T22:31:35.626Z,23.33
2023-02-11T22:34:04.374Z,23.87
2023-02-11T22:36:34.503Z,22.03
2023-02-11T22:39:06.885Z,23.63
2023-02-11T22:41:34.959Z,21.90
2023-02-11T22:44:02.203Z,23.17
2023-02-11T22:46:30.050Z,22.37
2023-02-11T22:48:57.395Z,21.90
2023-02-11T22:51:27.267Z,24.83
2023-02-11T22:54:00.396Z,24.63
2023-02-11T22:56:29.361Z,24.27
2023-02-11T22:58:58.783Z,23.90
2023-02-11T23:01:26.564Z,23.70
2023-02-11T23:03:54.041Z,24.27
2023-02-11T23:06:21.560Z,24.07
2023-02-11T23:08:48.856Z,23.93
2023-02-11T23:11:19.782Z,23.87
2023-02-11T23:13:49.757Z,21.67
2023-02-11T23:16:30.681Z,21.33
2023-02-11T23:19:04.746Z,23.17
2023-02-11T23:21:34.677Z,23.53
2023-02-11T23:24:14.338Z,23.60
2023-02-11T23:26:43.301Z,23.30
2023-02-11T23:29:11.413Z,25.20
2023-02-11T23:31:40.699Z,23.67
2023-02-11T23:34:08.775Z,23.60
2023-02-11T23:36:36.259Z,23.40
2023-02-11T23:39:04.348Z,23.00
2023-02-11T23:41:31.807Z,22.97
2023-02-11T23:43:59.511Z,22.93
2023-02-11T23:46:27.536Z,21.93
2023-02-11T23:48:54.930Z,22.20
2023-02-11T23:51:22.314Z,24.00
2023-02-11T23:53:52.546Z,22.50
2023-02-11T23:56:26.378Z,23.33
2023-02-11T23:58:56.087Z,22.50
